Villas, NJ

5:31 AM EDT on September 16, 2014 (GMT -0400)
Cape May County | Change Station
CLOSE
Current Station
Airport
Location: Wildwood,
Elevation: 23 ft
Nearby Weather Stations

Elev 23 ft 39.01 °N, 74.91 °W | Updated 36 minutes ago

Partly Cloudy
Partly Cloudy
61 °F
Feels Like 61 °F
N
5
Wind Variable Wind from SE

Today
High -- | Low -- °F
--% Chance of Precip.
Yesterday
High -- | Low -- °F
Precip. -- in
6:41 AM 7:06 PM
Waning Gibbous, 47% visible
Pressure 30.02 in
Visibility 10.0 miles
Clouds Few 9000 ft
Dew Point 54 °F
Humidity 77%
Rainfall 0.00 in
Snow Depth Not available.
UV 0 out of 12
Pollen 4.40 out of 12
Air Quality Not available.
Flu Activity Not available.
METAR KWWD 160855Z AUTO 14004KT 10SM FEW090 16/12 A3002 RMK AO1 57017

More Conditions Fewer Conditions

Pressure 30.02 in
Visibility 10.0 miles
Clouds Few 9000 ft
Dew Point 54 °F
Humidity 77%
Rainfall 0.00 in
Snow Depth Not available.
UV 0 out of 12
Pollen 4.40 out of 12
Air Quality Not available.
Flu Activity Not available.
METAR KWWD 160855Z AUTO 14004KT 10SM FEW090 16/12 A3002 RMK AO1 57017

More Conditions Fewer Conditions

10-Day Weather Forecast

Almanac

Astronomy

Sep. 16, 2014 Rise Set
Actual Time 6:41 AM EDT 7:06 PM EDT
Civil Twilight 6:15 AM EDT 7:33 PM EDT
Nautical Twilight 5:43 AM EDT 8:04 PM EDT
Astronomical Twilight 5:11 AM EDT 8:36 PM EDT
Moon No Moon Rise 2:25 PM EDT
Length of Visible Light 13h 17m
Length of Day
12h 24m
Tomorrow will be 2m 31s shorter.
Waning Gibbous, 47% of the Moon is Illuminated
Today
Waning Gibbous
Sep 24
New
Oct 1
First Quarter
Oct 8
Full
Oct 15
Last Quarter

Today's Extremes

State Highs State Lows

Community

WunderPhotos

Upload Photos

1,753,714 photos uploaded!

WunderBlogs® & News

Nearby

Snow Depth

Station Depth Elevation
No new snow has been reported.

Earthquake Activity

City Distance Mag. Time & Date
No recent earthquake activity has been reported nearby.
Minimum magnitude displayed is 2.5.

Coastal Water Temperatures

Place Temperature
Cape May, NJ 75.0 °F
Lewes, DE 72.0 °F
Ship John Shoal, NJ 73.0 °F

Nearby Weather Stations